createdAt,value
2019-04-20T00:00:37.178Z,8.10
2019-04-20T00:03:00.032Z,8.00
2019-04-20T00:05:27.509Z,7.90
2019-04-20T00:07:55.418Z,7.90
2019-04-20T00:10:24.323Z,7.90
2019-04-20T00:13:02.009Z,7.80
2019-04-20T00:15:19.677Z,8.50
2019-04-20T00:17:53.279Z,7.70
2019-04-20T00:20:21.880Z,7.70
2019-04-20T00:23:01.752Z,7.60
2019-04-20T00:25:49.985Z,7.50
2019-04-20T00:28:27.211Z,7.40
2019-04-20T00:30:52.942Z,7.30
2019-04-20T00:33:15.118Z,7.40
2019-04-20T00:35:31.406Z,7.30
2019-04-20T00:37:59.083Z,7.30
2019-04-20T00:40:25.673Z,7.30
2019-04-20T00:42:55.155Z,7.20
2019-04-20T00:45:25.831Z,7.20
2019-04-20T00:47:56.270Z,7.20
2019-04-20T00:50:34.220Z,7.20
2019-04-20T00:53:00.833Z,7.10
2019-04-20T00:55:14.861Z,7.10
2019-04-20T00:57:48.562Z,7.10
2019-04-20T01:00:28.616Z,7.00
2019-04-20T01:02:50.633Z,7.00
2019-04-20T01:05:26.727Z,6.90
2019-04-20T01:08:00.558Z,6.80
2019-04-20T01:10:28.365Z,6.70
2019-04-20T01:13:01.369Z,6.70
2019-04-20T01:15:28.026Z,7.40
2019-04-20T01:17:50.037Z,6.50
2019-04-20T01:20:16.404Z,6.80
2019-04-20T01:22:51.452Z,6.50
2019-04-20T01:25:18.413Z,6.50
2019-04-20T01:27:59.388Z,6.50
2019-04-20T01:30:17.169Z,6.50
2019-04-20T01:32:55.419Z,6.50
2019-04-20T01:35:22.872Z,6.40
2019-04-20T01:37:46.888Z,7.20
2019-04-20T01:40:04.146Z,6.30
2019-04-20T01:42:30.033Z,6.20
2019-04-20T01:44:58.315Z,6.20
2019-04-20T01:47:34.486Z,6.20
2019-04-20T01:49:57.548Z,6.20
2019-04-20T01:52:28.635Z,6.10
2019-04-20T01:55:23.005Z,6.70
2019-04-20T01:57:56.169Z,6.10
2019-04-20T02:00:17.232Z,6.60
2019-04-20T02:02:47.537Z,6.00
2019-04-20T02:05:16.609Z,5.90
2019-04-20T02:07:43.566Z,5.90
2019-04-20T02:10:09.857Z,5.80
2019-04-20T02:12:38.808Z,5.80
2019-04-20T02:15:07.614Z,5.70
2019-04-20T02:17:40.805Z,5.70
2019-04-20T02:20:23.339Z,5.70
2019-04-20T02:22:46.438Z,5.70
2019-04-20T02:25:01.721Z,5.70
2019-04-20T02:27:36.777Z,5.60
2019-04-20T02:30:29.999Z,5.60
2019-04-20T02:33:14.006Z,5.60
2019-04-20T02:35:30.111Z,5.60
2019-04-20T02:42:58.066Z,5.40
2019-04-20T02:45:33.326Z,5.40
2019-04-20T02:47:55.060Z,5.30
2019-04-20T02:50:24.357Z,5.30
2019-04-20T02:55:14.607Z,5.20
2019-04-20T03:02:27.474Z,5.10
2019-04-20T03:04:47.064Z,5.10
2019-04-20T03:07:19.106Z,5.10
2019-04-20T03:09:50.161Z,5.10
2019-04-20T03:12:30.389Z,5.00
2019-04-20T03:14:47.846Z,5.30
2019-04-20T03:17:21.731Z,4.90
2019-04-20T03:19:41.168Z,4.90
2019-04-20T03:22:21.317Z,4.90
2019-04-20T03:24:52.555Z,4.80
2019-04-20T03:27:10.814Z,5.30
2019-04-20T03:29:52.286Z,4.70
2019-04-20T03:32:51.253Z,4.70
2019-04-20T03:37:28.055Z,4.60
2019-04-20T03:39:41.630Z,4.60
2019-04-20T03:41:56.916Z,4.70
2019-04-20T03:44:26.379Z,4.50
2019-04-20T03:46:57.336Z,4.90
2019-04-20T03:49:42.030Z,4.60
2019-04-20T03:52:26.182Z,5.10
2019-04-20T03:55:15.126Z,4.90
2019-04-20T03:57:51.248Z,4.50
2019-04-20T04:00:26.708Z,4.40
2019-04-20T04:03:10.930Z,4.50
2019-04-20T04:05:27.481Z,4.40
2019-04-20T04:07:44.856Z,4.40
2019-04-20T04:10:23.851Z,4.40
2019-04-20T04:13:09.332Z,5.30
2019-04-20T04:15:47.765Z,4.40
2019-04-20T04:18:13.894Z,5.00
2019-04-20T04:20:43.362Z,4.40
2019-04-20T04:23:19.211Z,4.30
2019-04-20T04:25:49.971Z,4.30
2019-04-20T04:28:14.259Z,4.30
2019-04-20T04:30:40.563Z,4.40
2019-04-20T04:33:40.023Z,4.50
2019-04-20T04:35:38.693Z,4.20
2019-04-20T04:38:12.685Z,4.20
2019-04-20T04:40:51.472Z,4.20
2019-04-20T04:43:10.190Z,4.20
2019-04-20T04:45:22.197Z,4.20
2019-04-20T04:47:47.324Z,4.10
2019-04-20T04:50:19.268Z,4.20
2019-04-20T04:52:53.914Z,4.20
2019-04-20T04:55:24.935Z,4.10
2019-04-20T04:57:39.004Z,4.20
2019-04-20T05:00:05.688Z,4.30
2019-04-20T05:02:40.471Z,4.40
2019-04-20T05:05:32.360Z,4.90
2019-04-20T05:07:54.470Z,4.40
2019-04-20T05:10:07.720Z,4.40
2019-04-20T05:12:36.789Z,4.60
2019-04-20T05:15:13.346Z,4.80
2019-04-20T05:17:50.083Z,5.40
2019-04-20T05:20:17.396Z,4.90
2019-04-20T05:22:53.677Z,5.00
2019-04-20T05:25:38.483Z,6.20
2019-04-20T05:28:10.723Z,6.60
2019-04-20T05:30:20.375Z,8.10
2019-04-20T05:32:56.123Z,9.30
2019-04-20T05:35:38.105Z,10.30
2019-04-20T05:38:06.598Z,11.10
2019-04-20T05:40:32.795Z,11.90
2019-04-20T05:43:04.719Z,12.80
2019-04-20T05:45:26.098Z,13.40
2019-04-20T05:47:53.602Z,13.70
2019-04-20T05:50:28.939Z,14.00
2019-04-20T05:53:04.506Z,14.30
2019-04-20T05:55:31.364Z,14.80
2019-04-20T05:57:56.755Z,15.40
2019-04-20T06:00:26.723Z,15.60
2019-04-20T06:02:56.017Z,15.60
2019-04-20T06:05:28.992Z,15.80
2019-04-20T06:07:54.815Z,16.00
2019-04-20T06:10:30.438Z,16.30
2019-04-20T06:12:51.611Z,16.70
2019-04-20T06:15:22.409Z,17.30
2019-04-20T06:17:58.013Z,17.50
2019-04-20T06:20:33.408Z,17.70
2019-04-20T06:23:12.161Z,17.50
2019-04-20T06:25:44.133Z,17.20
2019-04-20T06:28:02.402Z,17.10
2019-04-20T06:30:27.970Z,16.90
2019-04-20T06:33:54.922Z,16.90
2019-04-20T06:36:20.459Z,16.90
2019-04-20T06:41:13.968Z,16.80
2019-04-20T06:43:40.852Z,16.90
2019-04-20T06:46:10.318Z,17.40
2019-04-20T06:48:37.046Z,17.70
2019-04-20T06:50:53.856Z,18.10
2019-04-20T06:53:36.929Z,18.40
2019-04-20T06:56:08.413Z,18.40
2019-04-20T07:00:58.862Z,19.20
2019-04-20T07:03:37.269Z,19.20
2019-04-20T07:06:16.873Z,19.20
2019-04-20T07:08:40.682Z,19.40
2019-04-20T07:11:08.819Z,19.30
2019-04-20T07:13:12.858Z,19.40
2019-04-20T07:15:49.772Z,20.00
2019-04-20T07:18:31.240Z,20.80
2019-04-20T07:21:16.068Z,21.60
2019-04-20T07:25:57.007Z,22.30
2019-04-20T07:28:29.086Z,22.50
2019-04-20T07:30:53.526Z,23.00
2019-04-20T07:33:24.331Z,23.50
2019-04-20T07:35:46.275Z,23.50
2019-04-20T07:38:31.270Z,24.00
2019-04-20T07:40:42.021Z,24.60
2019-04-20T07:43:08.157Z,24.60
2019-04-20T07:45:37.600Z,24.70
2019-04-20T07:50:36.402Z,24.90
2019-04-20T07:53:07.925Z,25.30
2019-04-20T07:55:49.427Z,25.20
2019-04-20T07:57:57.523Z,25.40
2019-04-20T08:00:41.716Z,25.60
2019-04-20T08:03:20.424Z,25.70
2019-04-20T08:05:36.715Z,25.40
2019-04-20T08:08:10.531Z,25.20
2019-04-20T08:10:54.497Z,24.80
2019-04-20T08:13:18.073Z,25.70
2019-04-20T08:15:49.224Z,25.40
2019-04-20T08:18:10.357Z,25.40
2019-04-20T08:20:34.175Z,25.80
2019-04-20T08:23:05.095Z,26.20
2019-04-20T08:25:23.776Z,26.00
2019-04-20T08:27:52.975Z,26.50
2019-04-20T08:30:45.277Z,26.80
2019-04-20T08:33:14.547Z,26.50
2019-04-20T08:35:49.362Z,26.50
2019-04-20T08:38:47.228Z,26.70
2019-04-20T08:40:46.270Z,26.50
2019-04-20T08:43:25.070Z,26.30
2019-04-20T08:45:43.095Z,26.30
2019-04-20T08:48:12.819Z,26.30
2019-04-20T08:50:35.599Z,25.70
2019-04-20T08:55:29.749Z,25.20
2019-04-20T08:57:40.387Z,26.00
2019-04-20T09:00:09.224Z,26.50
2019-04-20T09:02:37.006Z,26.90
2019-04-20T09:05:18.609Z,26.80
2019-04-20T09:07:49.053Z,26.90
2019-04-20T09:10:32.463Z,26.80
2019-04-20T09:12:50.666Z,26.70
2019-04-20T09:15:06.043Z,26.70
2019-04-20T09:17:42.360Z,25.90
2019-04-20T09:20:12.661Z,26.40
2019-04-20T09:22:51.871Z,26.90
2019-04-20T09:25:49.766Z,26.90
2019-04-20T09:27:47.638Z,26.50
2019-04-20T09:30:25.930Z,26.70
2019-04-20T09:33:09.582Z,26.40
2019-04-20T09:35:39.052Z,26.70
2019-04-20T09:38:07.291Z,26.90
2019-04-20T09:40:34.987Z,27.40
2019-04-20T09:42:50.680Z,27.60
2019-04-20T09:45:27.433Z,27.70
2019-04-20T09:47:51.338Z,27.90
2019-04-20T09:50:37.049Z,27.50
2019-04-20T09:52:59.229Z,27.40
2019-04-20T09:55:24.405Z,27.40
2019-04-20T09:57:58.651Z,27.80
2019-04-20T10:00:25.725Z,28.10
2019-04-20T10:02:39.227Z,28.20
2019-04-20T10:05:05.517Z,28.10
2019-04-20T10:07:35.221Z,27.80
2019-04-20T10:10:00.626Z,27.70
2019-04-20T10:12:26.979Z,28.50
2019-04-20T10:14:56.668Z,28.20
2019-04-20T10:17:21.623Z,28.10
2019-04-20T10:19:48.357Z,28.20
2019-04-20T10:22:14.997Z,27.60
2019-04-20T10:24:42.326Z,27.50
2019-04-20T10:27:10.427Z,27.20
2019-04-20T10:29:37.566Z,27.50
2019-04-20T10:32:08.835Z,27.10
2019-04-20T10:34:34.629Z,27.70
2019-04-20T10:37:03.836Z,27.70
2019-04-20T10:39:32.273Z,27.70
2019-04-20T10:42:02.110Z,28.50
2019-04-20T10:44:27.515Z,27.90
2019-04-20T10:46:53.981Z,28.40
2019-04-20T10:49:20.339Z,28.40
2019-04-20T10:51:47.574Z,27.80
2019-04-20T10:54:14.277Z,28.10
2019-04-20T10:56:41.463Z,28.90
2019-04-20T10:59:08.034Z,28.90
2019-04-20T11:01:35.730Z,27.90
2019-04-20T11:04:02.962Z,27.70
2019-04-20T11:06:29.822Z,27.70
2019-04-20T11:08:56.352Z,28.10
2019-04-20T11:11:26.962Z,27.40
2019-04-20T11:13:53.155Z,27.80
2019-04-20T11:16:20.216Z,28.00
2019-04-20T11:18:47.390Z,28.20
2019-04-20T11:21:15.313Z,28.50
2019-04-20T11:23:42.484Z,27.80
2019-04-20T11:26:10.425Z,27.90
2019-04-20T11:28:37.828Z,27.70
2019-04-20T11:31:04.280Z,28.30
2019-04-20T11:33:31.996Z,27.90
2019-04-20T11:35:59.114Z,28.10
2019-04-20T11:38:26.139Z,27.40
2019-04-20T11:41:03.889Z,27.10
2019-04-20T11:43:25.973Z,27.80
2019-04-20T11:45:52.522Z,28.10
2019-04-20T11:48:19.204Z,27.40
2019-04-20T11:50:45.572Z,27.40
2019-04-20T11:53:13.220Z,27.40
2019-04-20T11:55:40.451Z,27.30
2019-04-20T11:58:08.080Z,27.80
2019-04-20T12:00:46.968Z,27.70
2019-04-20T12:03:16.033Z,27.50
2019-04-20T12:05:43.185Z,27.40
2019-04-20T12:08:06.998Z,26.70
2019-04-20T12:10:34.940Z,27.60
2019-04-20T12:13:01.820Z,27.40
2019-04-20T12:15:29.484Z,27.50
2019-04-20T12:17:57.818Z,27.70
2019-04-20T12:20:24.999Z,27.20
2019-04-20T12:22:52.689Z,27.00
2019-04-20T12:25:20.388Z,27.20
2019-04-20T12:27:51.276Z,27.40
2019-04-20T12:30:15.519Z,27.10
2019-04-20T12:32:46.377Z,27.10
2019-04-20T12:35:10.266Z,26.80
2019-04-20T12:37:36.949Z,26.80
2019-04-20T12:40:28.438Z,26.70
2019-04-20T12:42:55.023Z,26.50
2019-04-20T12:45:21.838Z,26.00
2019-04-20T12:47:50.281Z,26.10
2019-04-20T12:50:17.370Z,26.50
2019-04-20T12:52:44.200Z,26.10
2019-04-20T12:55:10.869Z,25.70
2019-04-20T12:57:38.546Z,25.60
2019-04-20T13:00:07.713Z,25.70
2019-04-20T13:02:35.450Z,25.70
2019-04-20T13:05:04.287Z,25.70
2019-04-20T13:07:38.229Z,25.50
2019-04-20T13:10:19.290Z,25.40
2019-04-20T13:12:56.691Z,25.30
2019-04-20T13:15:26.585Z,25.50
2019-04-20T13:17:54.401Z,25.40
2019-04-20T13:20:21.684Z,25.20
2019-04-20T13:22:48.733Z,25.00
2019-04-20T13:25:19.035Z,24.90
2019-04-20T13:27:45.611Z,24.80
2019-04-20T13:30:13.220Z,24.70
2019-04-20T13:32:41.433Z,24.30
2019-04-20T13:35:08.070Z,24.20
2019-04-20T13:37:38.543Z,24.00
2019-04-20T13:40:04.929Z,24.10
2019-04-20T13:42:33.531Z,24.00
2019-04-20T13:45:01.311Z,23.50
2019-04-20T13:47:28.343Z,23.60
2019-04-20T13:49:55.027Z,23.60
2019-04-20T13:52:22.727Z,23.50
2019-04-20T13:54:49.702Z,23.60
2019-04-20T13:57:21.721Z,23.70
2019-04-20T14:00:00.086Z,23.60
2019-04-20T14:02:31.321Z,23.70
2019-04-20T14:04:59.635Z,23.50
2019-04-20T14:07:27.058Z,23.60
2019-04-20T14:09:53.632Z,23.40
2019-04-20T14:12:25.241Z,23.40
2019-04-20T14:14:48.933Z,23.40
2019-04-20T14:17:15.413Z,23.30
2019-04-20T14:19:43.191Z,23.20
2019-04-20T14:22:10.307Z,23.20
2019-04-20T14:24:37.227Z,23.10
2019-04-20T14:27:03.746Z,23.10
2019-04-20T14:29:30.679Z,23.00
2019-04-20T14:31:59.873Z,23.00
2019-04-20T14:34:26.557Z,23.00
2019-04-20T14:36:53.293Z,23.10
2019-04-20T14:39:20.409Z,23.00
2019-04-20T14:41:46.972Z,22.90
2019-04-20T14:44:14.008Z,22.90
2019-04-20T14:46:41.899Z,22.80
2019-04-20T14:49:08.549Z,22.70
2019-04-20T14:51:35.304Z,22.80
2019-04-20T14:54:03.256Z,22.70
2019-04-20T14:56:29.798Z,22.70
2019-04-20T14:59:05.257Z,22.60
2019-04-20T15:01:36.778Z,22.60
2019-04-20T15:04:09.495Z,22.60
2019-04-20T15:06:34.628Z,22.60
2019-04-20T15:09:00.859Z,22.60
2019-04-20T15:11:27.420Z,22.50
2019-04-20T15:13:53.839Z,22.40
2019-04-20T15:16:20.389Z,22.30
2019-04-20T15:18:58.111Z,22.20
2019-04-20T15:21:33.532Z,22.20
2019-04-20T15:24:01.618Z,22.20
2019-04-20T15:26:28.732Z,22.10
2019-04-20T15:28:56.513Z,22.00
2019-04-20T15:31:23.893Z,21.90
2019-04-20T15:33:50.845Z,21.90
2019-04-20T15:36:18.040Z,21.90
2019-04-20T15:38:45.052Z,21.90
2019-04-20T15:41:13.304Z,21.90
2019-04-20T15:43:39.788Z,21.80
2019-04-20T15:46:07.483Z,21.80
2019-04-20T15:48:34.361Z,21.80
2019-04-20T15:51:01.693Z,21.80
2019-04-20T15:53:29.453Z,21.60
2019-04-20T15:55:57.465Z,21.60
2019-04-20T15:58:23.992Z,21.60
2019-04-20T16:00:51.298Z,21.50
2019-04-20T16:03:23.428Z,21.40
2019-04-20T16:06:07.458Z,21.40
2019-04-20T16:08:36.705Z,21.40
2019-04-20T16:11:04.832Z,21.40
2019-04-20T16:13:37.615Z,21.40
2019-04-20T16:16:01.387Z,21.40
2019-04-20T16:18:28.158Z,21.40
2019-04-20T16:21:04.726Z,21.30
2019-04-20T16:23:22.902Z,21.40
2019-04-20T16:26:03.717Z,21.30
2019-04-20T16:28:30.334Z,21.20
2019-04-20T16:30:56.710Z,21.30
2019-04-20T16:33:26.297Z,21.30
2019-04-20T16:35:56.364Z,21.30
2019-04-20T16:38:26.040Z,21.20
2019-04-20T16:40:52.483Z,21.10
2019-04-20T16:43:27.786Z,21.20
2019-04-20T16:45:47.443Z,21.10
2019-04-20T16:48:14.036Z,21.00
2019-04-20T16:50:40.788Z,21.00
2019-04-20T16:53:08.775Z,20.90
2019-04-20T16:55:36.849Z,20.90
2019-04-20T16:58:03.830Z,20.80
2019-04-20T17:00:31.528Z,20.80
2019-04-20T17:02:58.450Z,20.70
2019-04-20T17:05:25.792Z,20.60
2019-04-20T17:07:57.525Z,20.60
2019-04-20T17:10:24.025Z,20.50
2019-04-20T17:12:51.511Z,20.40
2019-04-20T17:15:19.274Z,20.30
2019-04-20T17:17:48.159Z,20.20
2019-04-20T17:22:40.214Z,20.10
2019-04-20T17:25:08.288Z,20.00
2019-04-20T17:27:41.279Z,20.00
2019-04-20T17:30:24.978Z,19.90
2019-04-20T17:32:53.622Z,19.80
2019-04-20T17:35:31.298Z,19.70
2019-04-20T17:37:50.356Z,19.60
2019-04-20T17:40:34.031Z,19.50
2019-04-20T17:42:57.903Z,19.40
2019-04-20T17:45:28.729Z,19.40
2019-04-20T17:47:58.331Z,19.30
2019-04-20T17:50:34.731Z,19.10
2019-04-20T17:52:56.220Z,19.10
2019-04-20T17:55:22.221Z,18.90
2019-04-20T17:57:39.320Z,18.80
2019-04-20T18:00:13.729Z,18.70
2019-04-20T18:03:57.577Z,18.60
2019-04-20T18:06:15.084Z,18.50
2019-04-20T18:08:45.382Z,18.40
2019-04-20T18:10:58.765Z,18.20
2019-04-20T18:13:24.233Z,18.00
2019-04-20T18:16:12.695Z,17.90
2019-04-20T18:20:42.989Z,17.80
2019-04-20T18:23:10.917Z,17.50
2019-04-20T18:26:07.993Z,17.40
2019-04-20T18:28:22.607Z,17.20
2019-04-20T18:30:54.784Z,17.00
2019-04-20T18:33:13.787Z,16.90
2019-04-20T18:35:44.350Z,16.70
2019-04-20T18:38:13.014Z,16.60
2019-04-20T18:40:49.606Z,16.40
2019-04-20T18:43:11.344Z,16.30
2019-04-20T18:45:56.966Z,16.10
2019-04-20T18:48:15.820Z,16.00
2019-04-20T18:50:35.447Z,15.90
2019-04-20T18:52:59.954Z,15.60
2019-04-20T18:55:38.303Z,15.50
2019-04-20T18:57:55.142Z,15.30
2019-04-20T19:00:28.769Z,15.20
2019-04-20T19:02:54.361Z,15.10
2019-04-20T19:05:19.903Z,14.90
2019-04-20T19:07:57.148Z,14.80
2019-04-20T19:10:23.641Z,14.70
2019-04-20T19:12:52.293Z,14.50
2019-04-20T19:15:44.279Z,14.40
2019-04-20T19:18:06.548Z,14.20
2019-04-20T19:20:27.477Z,14.10
2019-04-20T19:22:53.506Z,13.90
2019-04-20T19:25:26.655Z,13.90
2019-04-20T19:27:52.663Z,13.80
2019-04-20T19:30:27.637Z,13.60
2019-04-20T19:33:04.970Z,13.60
2019-04-20T19:35:28.714Z,13.50
2019-04-20T19:37:56.933Z,13.40
2019-04-20T19:40:28.228Z,13.30
2019-04-20T19:42:55.834Z,13.20
2019-04-20T19:45:34.590Z,13.00
2019-04-20T19:47:53.192Z,11.90
2019-04-20T19:50:35.549Z,12.80
2019-04-20T19:53:05.989Z,12.80
2019-04-20T19:55:41.241Z,12.70
2019-04-20T19:58:10.695Z,12.60
2019-04-20T20:00:48.523Z,12.50
2019-04-20T20:03:15.396Z,12.40
2019-04-20T20:05:46.240Z,12.30
2019-04-20T20:08:14.911Z,12.10
2019-04-20T20:10:41.283Z,12.10
2019-04-20T20:13:08.246Z,12.00
2019-04-20T20:15:39.511Z,11.90
2019-04-20T20:18:27.494Z,11.80
2019-04-20T20:20:52.938Z,11.70
2019-04-20T20:23:02.437Z,11.70
2019-04-20T20:25:35.639Z,11.60
2019-04-20T20:28:12.178Z,11.50
2019-04-20T20:30:32.878Z,11.50
2019-04-20T20:33:11.502Z,11.40
2019-04-20T20:35:28.712Z,11.30
2019-04-20T20:37:57.348Z,11.30
2019-04-20T20:40:27.435Z,11.10
2019-04-20T20:43:01.547Z,11.10
2019-04-20T20:45:28.903Z,11.00
2019-04-20T20:48:05.734Z,11.00
2019-04-20T20:52:57.384Z,10.80
2019-04-20T20:55:20.931Z,10.80
2019-04-20T20:57:52.060Z,10.70
2019-04-20T21:00:19.548Z,10.60
2019-04-20T21:02:45.883Z,10.60
2019-04-20T21:05:05.949Z,10.50
2019-04-20T21:07:32.698Z,10.40
2019-04-20T21:10:00.627Z,10.50
2019-04-20T21:12:28.705Z,10.30
2019-04-20T21:15:00.367Z,10.20
2019-04-20T21:17:32.033Z,10.20
2019-04-20T21:20:07.417Z,10.10
2019-04-20T21:22:41.217Z,10.10
2019-04-20T21:24:55.072Z,10.00
2019-04-20T21:27:22.236Z,10.00
2019-04-20T21:29:54.222Z,9.90
2019-04-20T21:32:20.200Z,9.80
2019-04-20T21:34:53.342Z,9.80
2019-04-20T21:37:18.622Z,9.70
2019-04-20T21:39:50.002Z,9.60
2019-04-20T21:42:16.093Z,9.60
2019-04-20T21:44:42.944Z,9.50
2019-04-20T21:47:09.538Z,9.50
2019-04-20T21:49:50.866Z,9.50
2019-04-20T21:52:15.299Z,9.40
2019-04-20T21:54:34.049Z,9.40
2019-04-20T21:57:03.824Z,9.30
2019-04-20T21:59:36.240Z,9.30
2019-04-20T22:02:03.468Z,9.20
2019-04-20T22:04:25.588Z,9.20
2019-04-20T22:06:52.164Z,8.70
2019-04-20T22:09:20.092Z,9.10
2019-04-20T22:11:49.769Z,9.00
2019-04-20T22:14:20.576Z,8.90
2019-04-20T22:16:49.576Z,8.90
2019-04-20T22:19:28.443Z,8.80
2019-04-20T22:21:53.155Z,8.80
2019-04-20T22:24:28.345Z,8.70
2019-04-20T22:26:50.364Z,8.60
2019-04-20T22:29:06.106Z,8.50
2019-04-20T22:31:33.971Z,8.50
2019-04-20T22:34:06.402Z,8.40
2019-04-20T22:36:34.382Z,8.40
2019-04-20T22:39:09.479Z,8.30
2019-04-20T22:41:40.554Z,8.30
2019-04-20T22:44:13.628Z,8.30
2019-04-20T22:46:40.376Z,8.20
2019-04-20T22:49:22.245Z,8.20
2019-04-20T22:51:44.825Z,8.10
2019-04-20T22:54:23.288Z,8.00
2019-04-20T22:56:47.312Z,7.90
2019-04-20T22:59:07.422Z,7.80
2019-04-20T23:01:38.750Z,7.80
2019-04-20T23:03:56.892Z,7.70
2019-04-20T23:06:25.295Z,7.70
2019-04-20T23:08:58.556Z,7.60
2019-04-20T23:11:25.223Z,7.50
2019-04-20T23:13:50.109Z,7.50
2019-04-20T23:16:17.447Z,7.40
2019-04-20T23:18:44.407Z,7.30
2019-04-20T23:21:14.048Z,7.20
2019-04-20T23:23:39.500Z,7.20
2019-04-20T23:26:07.245Z,7.20
2019-04-20T23:28:33.730Z,7.10
2019-04-20T23:31:06.503Z,7.10
2019-04-20T23:33:29.526Z,7.00
2019-04-20T23:35:59.271Z,7.00
2019-04-20T23:38:24.836Z,6.90
2019-04-20T23:40:52.101Z,6.90
2019-04-20T23:43:28.851Z,6.90
2019-04-20T23:46:08.314Z,6.80
2019-04-20T23:48:44.471Z,6.80
2019-04-20T23:51:37.532Z,6.70
2019-04-20T23:53:52.284Z,6.70
2019-04-20T23:56:07.881Z,6.60
2019-04-20T23:58:42.918Z,6.60
